Time;durP1;ratioP1;P1;durP2;ratioP2;P2;SDS_P1;SDS_P2;PMS_P1;PMS_P2;Temp;Humidity;BMP_temperature;BMP_pressure;BME280_temperature;BME280_humidity;BME280_pressure;Samples;Min_cycle;Max_cycle;Signal;HPM_P1;HPM_P2
2020/12/21 00:00:09;;;;;;;;;;;;;;;;;;5023280;28;9579;-50
2020/12/21 00:02:35;;;;;;;;;;;;;;;;;;5028374;28;7673;-52
2020/12/21 00:05:00;;;;;;;;;;;;;;;;;;5026976;28;14368;-48
2020/12/21 00:07:25;;;;;;;;;;;;;;;;;;5029439;28;4235;-51
2020/12/21 00:09:51;;;;;;;;;;;;;;;;;;5029988;28;7165;-52
2020/12/21 00:12:16;;;;;;;;;;;;;;;;;;5029152;28;13858;-49
2020/12/21 00:14:41;;;;;;;;;;;;;;;;;;5020507;28;10277;-52
2020/12/21 00:17:06;;;;;;;;;;;;;;;;;;5020997;28;15565;-52
2020/12/21 00:19:32;;;;;;;;;;;;;;;;;;5028916;28;4173;-54
2020/12/21 00:21:57;;;;;;;;;;;;;;;;;;5030999;28;8918;-49
2020/12/21 00:24:22;;;;;;;;;;;;;;;;;;5030822;28;16429;-49
2020/12/21 00:26:48;;;;;;;;;;;;;;;;;;5037177;28;13273;-50
2020/12/21 00:29:14;;;;;;;;;;;;;;;;;;5037247;28;14668;-55
2020/12/21 00:31:39;;;;;;;;;;;;;;;;;;5019248;28;6314;-50
2020/12/21 00:34:05;;;;;;;;;;;;;;;;;;5010041;28;11468;-46
2020/12/21 00:36:31;;;;;;;;;;;;;;;;;;5026565;28;11049;-48
2020/12/21 00:38:57;;;;;;;;;;;;;;;;;;5028146;28;10069;-53
2020/12/21 00:41:22;;;;;;;;;;;;;;;;;;5023985;28;8095;-56
2020/12/21 00:43:48;;;;;;;;;;;;;;;;;;5026212;28;12631;-47
2020/12/21 00:46:14;;;;;;;;;;;;;;;;;;5028366;28;6949;-44
2020/12/21 00:48:41;;;;;;;;;;;;;;;;;;5025276;28;14773;-55
2020/12/21 00:51:06;;;;;;;;;;;;;;;;;;5027941;28;14170;-55
2020/12/21 00:53:31;;;;;;;;;;;;;;;;;;5035451;28;13715;-49
2020/12/21 00:56:01;;;;;;;;;;;;;;;;;;5036522;28;14264;-51
2020/12/21 00:58:26;;;;;;;;;;;;;;;;;;5029924;28;4316;-48
2020/12/21 01:00:51;;;;;;;;;;;;;;;;;;5029204;28;9467;-51
2020/12/21 01:03:17;;;;;;;;;;;;;;;;;;5031214;28;9316;-50
2020/12/21 01:05:42;;;;;;;;;;;;;;;;;;5030260;28;7622;-51
2020/12/21 01:08:07;;;;;;;;;;;;;;;;;;5030691;28;15757;-49
2020/12/21 01:10:32;;;;;;;;;;;;;;;;;;5031681;28;4253;-53
2020/12/21 01:12:58;;;;;;;;;;;;;;;;;;5030258;28;9603;-48
2020/12/21 01:15:23;;;;;;;;;;;;;;;;;;5027857;28;15838;-55
2020/12/21 01:17:48;;;;;;;;;;;;;;;;;;5026305;28;9378;-50
2020/12/21 01:20:13;;;;;;;;;;;;;;;;;;5035071;28;10520;-55
2020/12/21 01:22:39;;;;;;;;;;;;;;;;;;5032787;28;3882;-52
2020/12/21 01:25:06;;;;;;;;;;;;;;;;;;5026821;28;13299;-48
2020/12/21 01:27:31;;;;;;;;;;;;;;;;;;5034371;28;15724;-52
2020/12/21 01:29:56;;;;;;;;;;;;;;;;;;5031212;28;7770;-52
2020/12/21 01:32:21;;;;;;;;;;;;;;;;;;5027117;28;12828;-48
2020/12/21 01:34:47;;;;;;;;;;;;;;;;;;5029523;28;13874;-51
2020/12/21 01:37:12;;;;;;;;;;;;;;;;;;5030020;28;6910;-51
2020/12/21 01:39:37;;;;;;;;;;;;;;;;;;5027045;28;13267;-53
2020/12/21 01:42:02;;;;;;;;;;;;;;;;;;5021181;28;11296;-47
2020/12/21 01:44:27;;;;;;;;;;;;;;;;;;5025557;28;11395;-51
2020/12/21 01:46:53;;;;;;;;;;;;;;;;;;5031725;28;14454;-46
2020/12/21 01:49:20;;;;;;;;;;;;;;;;;;5030848;28;6922;-54
2020/12/21 01:51:45;;;;;;;;;;;;;;;;;;5028535;28;15596;-52
2020/12/21 01:54:10;;;;;;;;;;;;;;;;;;5028998;28;14972;-52
2020/12/21 01:56:36;;;;;;;;;;;;;;;;;;5031839;28;9330;-49
2020/12/21 01:59:01;;;;;;;;;;;;;;;;;;5012607;28;13531;-49
2020/12/21 02:01:27;;;;;;;;;;;;;;;;;;5032368;28;4260;-48
2020/12/21 02:03:52;;;;;;;;;;;;;;;;;;5033851;28;9477;-48
2020/12/21 02:06:18;;;;;;;;;;;;;;;;;;5036867;28;9178;-47
2020/12/21 02:08:43;;;;;;;;;;;;;;;;;;5033841;28;14405;-50
2020/12/21 02:11:08;;;;;;;;;;;;;;;;;;5030859;28;12751;-48
2020/12/21 02:13:34;;;;;;;;;;;;;;;;;;5031708;28;12872;-47
2020/12/21 02:16:00;;;;;;;;;;;;;;;;;;5042956;28;12547;-48
2020/12/21 02:18:26;;;;;;;;;;;;;;;;;;5042324;28;15354;-48
2020/12/21 02:20:51;;;;;;;;;;;;;;;;;;5049518;28;13023;-54
2020/12/21 02:23:16;;;;;;;;;;;;;;;;;;5047814;28;14707;-51
2020/12/21 02:25:42;;;;;;;;;;;;;;;;;;5053151;28;15605;-51
2020/12/21 02:28:07;;;;;;;;;;;;;;;;;;5046947;28;9591;-52
2020/12/21 02:30:32;;;;;;;;;;;;;;;;;;5046440;28;9519;-49
2020/12/21 02:32:57;;;;;;;;;;;;;;;;;;5046162;28;15424;-52
2020/12/21 02:35:23;;;;;;;;;;;;;;;;;;5047148;28;9398;-50
2020/12/21 02:37:48;;;;;;;;;;;;;;;;;;5051385;28;14933;-47
2020/12/21 02:40:13;;;;;;;;;;;;;;;;;;5049937;28;9813;-48
2020/12/21 02:42:39;;;;;;;;;;;;;;;;;;5048067;28;12884;-51
2020/12/21 02:45:04;;;;;;;;;;;;;;;;;;5047451;28;15201;-49
2020/12/21 02:47:29;;;;;;;;;;;;;;;;;;5044066;28;14394;-53
2020/12/21 02:49:54;;;;;;;;;;;;;;;;;;5043995;28;9795;-49
2020/12/21 02:52:20;;;;;;;;;;;;;;;;;;5048659;28;3928;-47
2020/12/21 02:54:46;;;;;;;;;;;;;;;;;;5047682;28;9032;-53
2020/12/21 02:57:11;;;;;;;;;;;;;;;;;;5051475;28;12544;-50
2020/12/21 02:59:37;;;;;;;;;;;;;;;;;;5049497;28;13736;-52
2020/12/21 03:02:02;;;;;;;;;;;;;;;;;;5054122;28;8941;-50
2020/12/21 03:04:27;;;;;;;;;;;;;;;;;;5067002;28;3928;-51
2020/12/21 03:06:52;;;;;;;;;;;;;;;;;;5053638;28;15374;-49
2020/12/21 03:09:18;;;;;;;;;;;;;;;;;;5050555;28;9992;-53
2020/12/21 03:11:46;;;;;;;;;;;;;;;;;;5056141;28;15630;-52
2020/12/21 03:14:11;;;;;;;;;;;;;;;;;;5046996;28;8295;-47
2020/12/21 03:16:37;;;;;;;;;;;;;;;;;;5050953;28;4018;-57
2020/12/21 03:19:02;;;;;;;;;;;;;;;;;;5043432;28;15841;-52
2020/12/21 03:21:27;;;;;;;;;;;;;;;;;;5045839;28;17196;-49
2020/12/21 03:23:53;;;;;;;;;;;;;;;;;;5038510;28;10031;-53
2020/12/21 03:26:18;;;;;;;;;;;;;;;;;;5044309;28;14999;-52
2020/12/21 03:28:43;;;;;;;;;;;;;;;;;;5061217;28;14430;-50
2020/12/21 03:31:09;;;;;;;;;;;;;;;;;;5051439;28;9434;-53
2020/12/21 03:33:34;;;;;;;;;;;;;;;;;;5043621;28;14301;-48
2020/12/21 03:35:59;;;;;;;;;;;;;;;;;;5048948;28;14320;-54
2020/12/21 03:38:24;;;;;;;;;;;;;;;;;;5049847;28;9422;-48
2020/12/21 03:40:50;;;;;;;;;;;;;;;;;;5042035;28;16043;-49
2020/12/21 03:43:19;;;;;;;;;;;;;;;;;;5047387;28;6925;-52
2020/12/21 03:45:44;;;;;;;;;;;;;;;;;;5046731;28;11454;-49
2020/12/21 03:48:09;;;;;;;;;;;;;;;;;;5054472;28;11783;-50
2020/12/21 03:50:34;;;;;;;;;;;;;;;;;;5047235;28;15408;-49
2020/12/21 03:52:59;;;;;;;;;;;;;;;;;;5040099;28;11115;-54
2020/12/21 03:55:25;;;;;;;;;;;;;;;;;;5049845;28;4015;-48
2020/12/21 03:57:50;;;;;;;;;;;;;;;;;;5041683;28;12980;-52
2020/12/21 04:00:15;;;;;;;;;;;;;;;;;;5052069;28;12795;-53
2020/12/21 04:02:41;;;;;;;;;;;;;;;;;;5049296;28;14691;-48
2020/12/21 04:05:06;;;;;;;;;;;;;;;;;;5052672;28;7723;-49
2020/12/21 04:07:33;;;;;;;;;;;;;;;;;;5051568;28;4379;-55
2020/12/21 04:09:58;;;;;;;;;;;;;;;;;;5045600;28;16710;-48
2020/12/21 04:12:23;;;;;;;;;;;;;;;;;;5042217;28;13542;-51
2020/12/21 04:14:49;;;;;;;;;;;;;;;;;;5043328;28;13045;-53
2020/12/21 04:17:14;;;;;;;;;;;;;;;;;;5041494;28;16365;-47
2020/12/21 04:19:39;;;;;;;;;;;;;;;;;;5049490;28;4219;-49
2020/12/21 04:22:04;;;;;;;;;;;;;;;;;;5041426;28;16424;-47
2020/12/21 04:24:30;;;;;;;;;;;;;;;;;;5044726;28;14791;-51
2020/12/21 04:26:55;;;;;;;;;;;;;;;;;;5047364;28;14810;-50
2020/12/21 04:29:20;;;;;;;;;;;;;;;;;;5050799;28;14944;-45
2020/12/21 04:31:45;;;;;;;;;;;;;;;;;;5048205;28;12155;-48
2020/12/21 04:34:11;;;;;;;;;;;;;;;;;;5039123;28;7481;-52
2020/12/21 04:36:36;;;;;;;;;;;;;;;;;;5040179;28;15979;-51
2020/12/21 04:39:01;;;;;;;;;;;;;;;;;;5046908;28;8830;-52
2020/12/21 04:41:27;;;;;;;;;;;;;;;;;;5046721;28;9415;-48
2020/12/21 04:43:54;;;;;;;;;;;;;;;;;;5045557;28;9878;-53
2020/12/21 04:46:21;;;;;;;;;;;;;;;;;;5047751;28;7036;-53
2020/12/21 04:48:46;;;;;;;;;;;;;;;;;;5048611;28;12975;-49
2020/12/21 04:51:11;;;;;;;;;;;;;;;;;;5048772;28;15402;-47
2020/12/21 04:53:37;;;;;;;;;;;;;;;;;;5044211;28;15920;-47
2020/12/21 04:56:03;;;;;;;;;;;;;;;;;;5045429;28;14646;-52
2020/12/21 04:58:28;;;;;;;;;;;;;;;;;;5052868;28;4316;-49
2020/12/21 05:00:53;;;;;;;;;;;;;;;;;;5052829;28;14416;-52
2020/12/21 05:03:18;;;;;;;;;;;;;;;;;;5047417;28;9095;-51
2020/12/21 05:05:44;;;;;;;;;;;;;;;;;;5044632;28;12661;-49
2020/12/21 05:08:13;;;;;;;;;;;;;;;;;;5047985;28;8365;-53
2020/12/21 05:10:40;;;;;;;;;;;;;;;;;;5048638;28;4153;-50
2020/12/21 05:13:05;;;;;;;;;;;;;;;;;;5046198;28;10266;-51
2020/12/21 05:15:31;;;;;;;;;;;;;;;;;;5045162;28;9059;-47
2020/12/21 05:18:06;;;;;;;;;;;;;;;;;;5044370;28;14312;-51
2020/12/21 05:20:32;;;;;;;;;;;;;;;;;;5041895;28;14448;-51
2020/12/21 05:22:57;;;;;;;;;;;;;;;;;;5050687;28;9040;-50
2020/12/21 05:25:23;;;;;;;;;;;;;;;;;;5045460;28;4194;-48
2020/12/21 05:27:48;;;;;;;;;;;;;;;;;;5044240;28;15238;-54
2020/12/21 05:30:13;;;;;;;;;;;;;;;;;;5059359;28;14092;-49
2020/12/21 05:32:38;;;;;;;;;;;;;;;;;;5048141;28;13541;-50
2020/12/21 05:35:07;;;;;;;;;;;;;;;;;;5048645;28;7647;-53
2020/12/21 05:37:33;;;;;;;;;;;;;;;;;;5048492;28;4279;-48
2020/12/21 05:39:58;;;;;;;;;;;;;;;;;;5046667;28;15417;-52
2020/12/21 05:42:24;;;;;;;;;;;;;;;;;;5047137;28;8705;-46
2020/12/21 05:44:50;;;;;;;;;;;;;;;;;;5046272;28;12228;-51
2020/12/21 05:47:15;;;;;;;;;;;;;;;;;;5048289;28;12447;-54
2020/12/21 05:49:49;;;;;;;;;;;;;;;;;;5056239;28;3836;-52
2020/12/21 05:52:24;;;;;;;;;;;;;;;;;;5044558;28;6655;-50
2020/12/21 05:54:51;;;;;;;;;;;;;;;;;;5041118;28;14519;-55
2020/12/21 05:57:19;;;;;;;;;;;;;;;;;;5049316;28;13936;-43
2020/12/21 05:59:45;;;;;;;;;;;;;;;;;;5055733;28;15828;-50
2020/12/21 06:02:11;;;;;;;;;;;;;;;;;;5039506;28;12706;-49
2020/12/21 06:04:39;;;;;;;;;;;;;;;;;;5051052;28;4233;-52
2020/12/21 06:07:10;;;;;;;;;;;;;;;;;;5053704;28;14526;-53
2020/12/21 06:09:35;;;;;;;;;;;;;;;;;;5048315;28;13322;-54
2020/12/21 06:12:00;;;;;;;;;;;;;;;;;;5045773;28;13921;-50
2020/12/21 06:14:26;;;;;;;;;;;;;;;;;;5048472;28;11402;-50
2020/12/21 06:16:52;;;;;;;;;;;;;;;;;;5049699;28;15768;-53
2020/12/21 06:19:24;;;;;;;;;;;;;;;;;;5057371;28;7683;-44
2020/12/21 06:21:53;;;;;;;;;;;;;;;;;;5044023;28;9800;-48
2020/12/21 06:24:18;;;;;;;;;;;;;;;;;;5037895;28;14503;-52
2020/12/21 06:26:44;;;;;;;;;;;;;;;;;;5036045;28;9433;-54
2020/12/21 06:29:10;;;;;;;;;;;;;;;;;;5047666;28;9418;-49
2020/12/21 06:31:36;;;;;;;;;;;;;;;;;;5051899;28;4208;-49
2020/12/21 06:34:01;;;;;;;;;;;;;;;;;;5051805;28;8517;-51
2020/12/21 06:36:31;;;;;;;;;;;;;;;;;;5047644;28;15149;-52
2020/12/21 06:38:56;;;;;;;;;;;;;;;;;;5049201;28;16280;-55
2020/12/21 06:41:26;;;;;;;;;;;;;;;;;;5048901;28;10189;-47
2020/12/21 06:43:54;;;;;;;;;;;;;;;;;;5049020;28;9472;-50
2020/12/21 06:46:19;;;;;;;;;;;;;;;;;;5049033;28;7216;-48
2020/12/21 06:48:49;;;;;;;;;;;;;;;;;;5046333;28;6803;-49
2020/12/21 06:51:15;;;;;;;;;;;;;;;;;;5042634;28;14052;-47
2020/12/21 06:53:40;;;;;;;;;;;;;;;;;;5045670;28;14255;-49
2020/12/21 06:56:12;;;;;;;;;;;;;;;;;;5041710;28;15430;-45
2020/12/21 06:58:38;;;;;;;;;;;;;;;;;;5040829;28;4189;-50
2020/12/21 07:01:03;;;;;;;;;;;;;;;;;;5049050;28;15864;-44
2020/12/21 07:03:28;;;;;;;;;;;;;;;;;;5053389;28;14178;-55
2020/12/21 07:05:59;;;;;;;;;;;;;;;;;;5048870;28;16201;-54
2020/12/21 07:08:25;;;;;;;;;;;;;;;;;;5044315;28;10685;-51
2020/12/21 07:10:57;;;;;;;;;;;;;;;;;;5055540;28;17700;-52
2020/12/21 07:13:23;;;;;;;;;;;;;;;;;;5048837;28;8592;-53
2020/12/21 07:15:48;;;;;;;;;;;;;;;;;;5043739;28;9305;-50
2020/12/21 07:18:13;;;;;;;;;;;;;;;;;;5048451;28;14794;-52
2020/12/21 07:20:39;;;;;;;;;;;;;;;;;;5047698;28;14750;-47
2020/12/21 07:23:04;;;;;;;;;;;;;;;;;;5047874;28;14387;-51
2020/12/21 07:25:29;;;;;;;;;;;;;;;;;;5050021;28;4241;-52
2020/12/21 07:27:55;;;;;;;;;;;;;;;;;;5047355;28;15052;-51
2020/12/21 07:30:24;;;;;;;;;;;;;;;;;;5049516;28;12067;-48
2020/12/21 07:32:49;;;;;;;;;;;;;;;;;;5048143;28;14835;-50
2020/12/21 07:35:14;;;;;;;;;;;;;;;;;;5038664;28;10691;-48
2020/12/21 07:37:39;;;;;;;;;;;;;;;;;;5046342;28;4281;-50
2020/12/21 07:40:15;;;;;;;;;;;;;;;;;;5046796;28;15719;-50
2020/12/21 07:42:40;;;;;;;;;;;;;;;;;;5046921;28;16749;-51
2020/12/21 07:45:07;;;;;;;;;;;;;;;;;;5046855;28;14560;-49
2020/12/21 07:47:34;;;;;;;;;;;;;;;;;;5047430;28;14365;-49
2020/12/21 07:50:00;;;;;;;;;;;;;;;;;;5043499;28;10947;-47
2020/12/21 07:52:26;;;;;;;;;;;;;;;;;;5045548;28;4157;-47
2020/12/21 07:54:51;;;;;;;;;;;;;;;;;;5041507;28;11053;-50
2020/12/21 07:57:17;;;;;;;;;;;;;;;;;;5039431;28;14190;-51
2020/12/21 07:59:42;;;;;;;;;;;;;;;;;;5035095;28;16380;-50
2020/12/21 08:02:08;;;;;;;;;;;;;;;;;;5045061;28;16643;-47
2020/12/21 08:04:34;;;;;;;;;;;;;;;;;;5040565;28;4220;-48
2020/12/21 08:07:05;;;;;;;;;;;;;;;;;;5038645;28;9318;-47
2020/12/21 08:09:30;;;;;;;;;;;;;;;;;;5048608;28;15021;-51
2020/12/21 08:11:58;;;;;;;;;;;;;;;;;;5061538;28;14266;-50
2020/12/21 08:14:23;;;;;;;;;;;;;;;;;;5045792;28;10887;-48
2020/12/21 08:16:48;;;;;;;;;;;;;;;;;;5048343;28;11919;-47
2020/12/21 08:19:20;;;;;;;;;;;;;;;;;;5044231;28;11913;-51
2020/12/21 08:21:45;;;;;;;;;;;;;;;;;;5040177;28;13566;-46
2020/12/21 08:24:11;;;;;;;;;;;;;;;;;;5044699;28;14167;-51
2020/12/21 08:26:37;;;;;;;;;;;;;;;;;;5043438;28;12265;-49
2020/12/21 08:29:03;;;;;;;;;;;;;;;;;;5049646;28;13862;-46
2020/12/21 08:31:28;;;;;;;;;;;;;;;;;;5048492;28;4193;-48
2020/12/21 08:33:59;;;;;;;;;;;;;;;;;;5044963;28;13725;-50
2020/12/21 08:36:26;;;;;;;;;;;;;;;;;;5044820;28;13693;-47
2020/12/21 08:38:52;;;;;;;;;;;;;;;;;;5041931;28;15208;-50
2020/12/21 08:41:18;;;;;;;;;;;;;;;;;;5040861;28;13838;-50
2020/12/21 08:43:43;;;;;;;;;;;;;;;;;;5047667;28;4221;-52
2020/12/21 08:46:10;;;;;;;;;;;;;;;;;;5038939;28;11593;-51
2020/12/21 08:48:36;;;;;;;;;;;;;;;;;;5044806;28;11632;-51
2020/12/21 08:51:01;;;;;;;;;;;;;;;;;;5040983;28;17375;-52
2020/12/21 08:53:26;;;;;;;;;;;;;;;;;;5042140;28;11475;-50
2020/12/21 08:55:51;;;;;;;;;;;;;;;;;;5040019;28;11870;-51
2020/12/21 08:58:17;;;;;;;;;;;;;;;;;;5047265;28;7855;-47
2020/12/21 09:00:42;;;;;;;;;;;;;;;;;;5045871;28;12845;-47
2020/12/21 09:03:07;;;;;;;;;;;;;;;;;;5041324;28;9909;-55
2020/12/21 09:05:35;;;;;;;;;;;;;;;;;;5044464;28;7558;-50
2020/12/21 09:08:01;;;;;;;;;;;;;;;;;;5040403;28;15297;-51
2020/12/21 09:10:26;;;;;;;;;;;;;;;;;;5040207;28;4010;-48
2020/12/21 09:12:51;;;;;;;;;;;;;;;;;;5042829;28;9340;-48
2020/12/21 09:15:16;;;;;;;;;;;;;;;;;;5046383;28;14120;-49
2020/12/21 09:17:42;;;;;;;;;;;;;;;;;;5045627;28;16097;-51
2020/12/21 09:20:07;;;;;;;;;;;;;;;;;;5046347;28;17194;-53
2020/12/21 09:22:32;;;;;;;;;;;;;;;;;;5053048;28;4251;-52
2020/12/21 09:24:57;;;;;;;;;;;;;;;;;;5043246;28;17089;-46
2020/12/21 09:27:23;;;;;;;;;;;;;;;;;;5049180;28;9748;-53
2020/12/21 09:29:48;;;;;;;;;;;;;;;;;;5047021;28;7996;-51
2020/12/21 09:32:13;;;;;;;;;;;;;;;;;;5045812;28;13089;-49
2020/12/21 09:34:39;;;;;;;;;;;;;;;;;;5051989;28;4262;-50
2020/12/21 09:37:04;;;;;;;;;;;;;;;;;;5053920;28;9770;-45
2020/12/21 09:39:29;;;;;;;;;;;;;;;;;;5049151;28;13520;-48
2020/12/21 09:41:55;;;;;;;;;;;;;;;;;;5056234;28;13975;-46
2020/12/21 09:44:20;;;;;;;;;;;;;;;;;;5052837;28;7444;-49
2020/12/21 09:46:46;;;;;;;;;;;;;;;;;;5049734;28;4203;-48
2020/12/21 09:49:11;;;;;;;;;;;;;;;;;;5048739;28;13757;-48
2020/12/21 09:51:36;;;;;;;;;;;;;;;;;;5043993;28;15471;-55
2020/12/21 09:54:02;;;;;;;;;;;;;;;;;;5048686;28;9540;-52
2020/12/21 09:56:27;;;;;;;;;;;;;;;;;;5047723;28;9446;-51
2020/12/21 09:58:52;;;;;;;;;;;;;;;;;;5057672;28;13905;-48
2020/12/21 10:01:18;;;;;;;;;;;;;;;;;;5044927;28;9675;-51
2020/12/21 10:03:43;;;;;;;;;;;;;;;;;;5041666;28;13776;-50
2020/12/21 10:06:09;;;;;;;;;;;;;;;;;;5040261;28;10305;-48
2020/12/21 10:08:34;;;;;;;;;;;;;;;;;;5043302;28;12959;-48
2020/12/21 10:11:00;;;;;;;;;;;;;;;;;;5049963;28;8003;-54
2020/12/21 10:13:25;;;;;;;;;;;;;;;;;;5040553;28;9702;-52
2020/12/21 10:15:50;;;;;;;;;;;;;;;;;;5049812;28;16617;-45
2020/12/21 10:18:15;;;;;;;;;;;;;;;;;;5050123;28;8374;-53
2020/12/21 10:20:42;;;;;;;;;;;;;;;;;;5048254;28;14498;-49
2020/12/21 10:23:08;;;;;;;;;;;;;;;;;;5048214;28;9451;-50
2020/12/21 10:25:33;;;;;;;;;;;;;;;;;;5051177;28;4338;-51
2020/12/21 10:27:58;;;;;;;;;;;;;;;;;;5048571;28;11208;-50
2020/12/21 10:30:23;;;;;;;;;;;;;;;;;;5053135;28;13682;-46
2020/12/21 10:32:49;;;;;;;;;;;;;;;;;;5050033;28;14196;-58
2020/12/21 10:35:14;;;;;;;;;;;;;;;;;;5045824;28;14983;-52
2020/12/21 10:37:39;;;;;;;;;;;;;;;;;;5051233;28;4335;-53
2020/12/21 10:40:05;;;;;;;;;;;;;;;;;;5048227;28;13264;-50
2020/12/21 10:42:30;;;;;;;;;;;;;;;;;;5049022;28;11076;-53
2020/12/21 10:44:55;;;;;;;;;;;;;;;;;;5044170;28;14048;-53
2020/12/21 10:47:21;;;;;;;;;;;;;;;;;;5047295;28;10271;-50
2020/12/21 10:49:47;;;;;;;;;;;;;;;;;;5041150;28;4180;-54
2020/12/21 10:52:12;;;;;;;;;;;;;;;;;;5048418;28;11049;-52
2020/12/21 10:54:37;;;;;;;;;;;;;;;;;;5042861;28;7382;-50
2020/12/21 10:57:03;;;;;;;;;;;;;;;;;;5049632;28;15327;-51
2020/12/21 10:59:28;;;;;;;;;;;;;;;;;;5038392;28;15267;-49
2020/12/21 11:01:54;;;;;;;;;;;;;;;;;;5039425;28;6777;-51
2020/12/21 11:04:19;;;;;;;;;;;;;;;;;;5047615;28;6897;-52
2020/12/21 11:06:44;;;;;;;;;;;;;;;;;;5048702;28;16803;-47
2020/12/21 11:09:09;;;;;;;;;;;;;;;;;;5048282;28;14522;-50
2020/12/21 11:11:35;;;;;;;;;;;;;;;;;;5048370;28;9578;-49
2020/12/21 11:14:00;;;;;;;;;;;;;;;;;;5046120;28;10925;-47
2020/12/21 11:16:25;;;;;;;;;;;;;;;;;;5049777;28;9714;-47
2020/12/21 11:18:51;;;;;;;;;;;;;;;;;;5042262;28;14192;-55
2020/12/21 11:21:16;;;;;;;;;;;;;;;;;;5043555;28;11218;-52
2020/12/21 11:23:42;;;;;;;;;;;;;;;;;;5030584;28;13651;-51
2020/12/21 11:26:07;;;;;;;;;;;;;;;;;;5042549;28;14330;-57
2020/12/21 11:28:32;;;;;;;;;;;;;;;;;;5050284;28;4145;-50
2020/12/21 11:30:58;;;;;;;;;;;;;;;;;;5048316;28;14080;-46
2020/12/21 11:33:23;;;;;;;;;;;;;;;;;;5048262;28;13499;-52
2020/12/21 11:35:48;;;;;;;;;;;;;;;;;;5046598;28;14146;-54
2020/12/21 11:38:15;;;;;;;;;;;;;;;;;;5048016;28;9534;-52
2020/12/21 11:40:40;;;;;;;;;;;;;;;;;;5051867;28;4201;-45
2020/12/21 11:43:07;;;;;;;;;;;;;;;;;;5051211;28;9502;-56
2020/12/21 11:45:32;;;;;;;;;;;;;;;;;;5041223;28;14473;-54
2020/12/21 11:47:57;;;;;;;;;;;;;;;;;;5047519;28;14173;-57
2020/12/21 11:50:22;;;;;;;;;;;;;;;;;;5055186;28;13989;-52
2020/12/21 11:52:48;;;;;;;;;;;;;;;;;;5045623;28;3942;-52
2020/12/21 11:55:13;;;;;;;;;;;;;;;;;;5036376;28;13552;-51
2020/12/21 11:57:38;;;;;;;;;;;;;;;;;;5044803;28;14451;-54
2020/12/21 12:00:04;;;;;;;;;;;;;;;;;;5046535;28;16179;-49
2020/12/21 12:02:29;;;;;;;;;;;;;;;;;;5039199;28;13017;-49
2020/12/21 12:04:55;;;;;;;;;;;;;;;;;;5046916;28;13510;-44
2020/12/21 12:07:20;;;;;;;;;;;;;;;;;;5043629;28;9335;-51
2020/12/21 12:09:45;;;;;;;;;;;;;;;;;;5044463;28;13988;-52
2020/12/21 12:12:11;;;;;;;;;;;;;;;;;;5049108;28;10796;-55
2020/12/21 12:14:36;;;;;;;;;;;;;;;;;;5037262;28;11027;-49
2020/12/21 12:17:02;;;;;;;;;;;;;;;;;;5045359;28;15652;-49
2020/12/21 12:19:27;;;;;;;;;;;;;;;;;;5041950;28;8618;-49
2020/12/21 12:21:52;;;;;;;;;;;;;;;;;;5035173;28;9960;-51
2020/12/21 12:24:18;;;;;;;;;;;;;;;;;;5044712;28;9598;-54
2020/12/21 12:26:43;;;;;;;;;;;;;;;;;;5044677;28;14064;-54
2020/12/21 12:29:09;;;;;;;;;;;;;;;;;;5044565;28;12143;-51
2020/12/21 12:31:34;;;;;;;;;;;;;;;;;;5048710;28;4164;-52
2020/12/21 12:33:59;;;;;;;;;;;;;;;;;;5046742;28;14735;-49
2020/12/21 12:36:26;;;;;;;;;;;;;;;;;;5045533;28;15640;-51
2020/12/21 12:38:51;;;;;;;;;;;;;;;;;;5046196;28;9737;-49
2020/12/21 12:41:17;;;;;;;;;;;;;;;;;;5047746;28;16239;-49
2020/12/21 12:43:42;;;;;;;;;;;;;;;;;;5040270;28;3923;-54
2020/12/21 12:46:08;;;;;;;;;;;;;;;;;;5044691;28;9340;-52
2020/12/21 12:48:34;;;;;;;;;;;;;;;;;;5045993;28;11086;-45
2020/12/21 12:50:59;;;;;;;;;;;;;;;;;;5048354;28;15588;-52
2020/12/21 12:53:24;;;;;;;;;;;;;;;;;;5032094;28;14502;-51
2020/12/21 12:55:50;;;;;;;;;;;;;;;;;;5046693;28;13919;-48
2020/12/21 12:58:15;;;;;;;;;;;;;;;;;;5052264;28;9386;-49
2020/12/21 13:00:40;;;;;;;;;;;;;;;;;;5049295;28;13368;-50
2020/12/21 13:03:06;;;;;;;;;;;;;;;;;;5044712;28;11461;-49
2020/12/21 13:05:31;;;;;;;;;;;;;;;;;;5053498;28;8056;-52
2020/12/21 13:07:56;;;;;;;;;;;;;;;;;;5045018;28;11409;-45
2020/12/21 13:10:23;;;;;;;;;;;;;;;;;;5053666;28;4107;-45
2020/12/21 13:12:48;;;;;;;;;;;;;;;;;;5049175;28;9226;-51
2020/12/21 13:15:13;;;;;;;;;;;;;;;;;;5043652;28;17460;-52
2020/12/21 13:17:39;;;;;;;;;;;;;;;;;;5045406;28;15937;-50
2020/12/21 13:20:04;;;;;;;;;;;;;;;;;;5048746;28;15642;-50
2020/12/21 13:22:29;;;;;;;;;;;;;;;;;;5052658;28;4073;-50
2020/12/21 13:24:55;;;;;;;;;;;;;;;;;;5047752;28;17031;-48
2020/12/21 13:27:21;;;;;;;;;;;;;;;;;;5049925;28;16080;-48
2020/12/21 13:29:46;;;;;;;;;;;;;;;;;;5054380;28;12980;-55
2020/12/21 13:32:11;;;;;;;;;;;;;;;;;;5050076;28;9706;-53
2020/12/21 13:34:36;;;;;;;;;;;;;;;;;;5048271;28;4459;-50
2020/12/21 13:37:02;;;;;;;;;;;;;;;;;;5044645;28;14154;-50
2020/12/21 13:39:27;;;;;;;;;;;;;;;;;;5050898;28;10187;-54
2020/12/21 13:41:52;;;;;;;;;;;;;;;;;;5050036;28;8668;-56
2020/12/21 13:44:17;;;;;;;;;;;;;;;;;;5045199;28;9076;-53
2020/12/21 13:46:43;;;;;;;;;;;;;;;;;;5050679;28;4184;-51
2020/12/21 13:49:08;;;;;;;;;;;;;;;;;;5050465;28;14189;-48
2020/12/21 13:51:33;;;;;;;;;;;;;;;;;;5049080;28;13872;-47
2020/12/21 13:53:58;;;;;;;;;;;;;;;;;;5048300;28;16668;-50
2020/12/21 13:56:24;;;;;;;;;;;;;;;;;;5048475;28;9529;-53
2020/12/21 13:58:49;;;;;;;;;;;;;;;;;;5049486;28;3939;-51
2020/12/21 14:01:15;;;;;;;;;;;;;;;;;;5049113;28;14516;-51
2020/12/21 14:03:41;;;;;;;;;;;;;;;;;;5049636;28;9419;-55
2020/12/21 14:06:06;;;;;;;;;;;;;;;;;;5048985;28;9934;-51
2020/12/21 14:08:31;;;;;;;;;;;;;;;;;;5045329;28;13645;-50
2020/12/21 14:10:56;;;;;;;;;;;;;;;;;;5037542;28;9721;-55
2020/12/21 14:13:22;;;;;;;;;;;;;;;;;;5050491;28;9973;-47
2020/12/21 14:15:47;;;;;;;;;;;;;;;;;;5051323;28;15355;-48
2020/12/21 14:18:12;;;;;;;;;;;;;;;;;;5052763;28;9663;-49
2020/12/21 14:20:37;;;;;;;;;;;;;;;;;;5041495;28;10273;-50
2020/12/21 14:23:03;;;;;;;;;;;;;;;;;;5052918;28;10258;-52
2020/12/21 14:25:28;;;;;;;;;;;;;;;;;;5051405;28;7099;-54
2020/12/21 14:27:53;;;;;;;;;;;;;;;;;;5048845;28;9908;-48
2020/12/21 14:30:18;;;;;;;;;;;;;;;;;;5040516;28;14567;-50
2020/12/21 14:32:47;;;;;;;;;;;;;;;;;;5049247;28;10943;-47
2020/12/21 14:35:13;;;;;;;;;;;;;;;;;;5051981;28;9480;-46
2020/12/21 14:37:38;;;;;;;;;;;;;;;;;;5060967;28;4142;-51
2020/12/21 14:40:03;;;;;;;;;;;;;;;;;;5046226;28;11536;-47
2020/12/21 14:42:29;;;;;;;;;;;;;;;;;;5049939;28;14862;-54
2020/12/21 14:44:54;;;;;;;;;;;;;;;;;;5048988;28;13351;-46
2020/12/21 14:47:19;;;;;;;;;;;;;;;;;;5049292;28;11043;-52
2020/12/21 14:49:44;;;;;;;;;;;;;;;;;;5051794;28;4165;-50
2020/12/21 14:52:10;;;;;;;;;;;;;;;;;;5044316;28;13486;-47
2020/12/21 14:54:35;;;;;;;;;;;;;;;;;;5047086;28;13943;-50
2020/12/21 14:57:00;;;;;;;;;;;;;;;;;;5045956;28;10705;-54
2020/12/21 14:59:25;;;;;;;;;;;;;;;;;;5048269;28;10850;-50
2020/12/21 15:01:56;;;;;;;;;;;;;;;;;;5043241;28;14367;-48
2020/12/21 15:04:22;;;;;;;;;;;;;;;;;;5043851;28;11076;-49
2020/12/21 15:06:48;;;;;;;;;;;;;;;;;;5041633;28;16330;-53
2020/12/21 15:09:13;;;;;;;;;;;;;;;;;;5047527;28;12507;-55
2020/12/21 15:11:38;;;;;;;;;;;;;;;;;;5045383;28;17092;-48
2020/12/21 15:14:05;;;;;;;;;;;;;;;;;;5048564;28;9227;-52
2020/12/21 15:16:31;;;;;;;;;;;;;;;;;;5049085;28;9564;-56
2020/12/21 15:18:56;;;;;;;;;;;;;;;;;;5046817;28;13416;-52
2020/12/21 15:21:21;;;;;;;;;;;;;;;;;;5035429;28;13243;-48
2020/12/21 15:23:46;;;;;;;;;;;;;;;;;;5044298;28;12189;-52
2020/12/21 15:26:12;;;;;;;;;;;;;;;;;;5048642;28;15246;-55
2020/12/21 15:28:37;;;;;;;;;;;;;;;;;;5047751;28;3950;-53
2020/12/21 15:31:02;;;;;;;;;;;;;;;;;;5046385;28;13092;-55
2020/12/21 15:33:28;;;;;;;;;;;;;;;;;;5034301;28;10800;-54
2020/12/21 15:35:54;;;;;;;;;;;;;;;;;;5034414;28;14394;-52
2020/12/21 15:38:19;;;;;;;;;;;;;;;;;;5045154;28;13741;-49
2020/12/21 15:40:46;;;;;;;;;;;;;;;;;;5050359;28;4348;-47
2020/12/21 15:43:11;;;;;;;;;;;;;;;;;;5040436;28;14296;-53
2020/12/21 15:45:36;;;;;;;;;;;;;;;;;;5043440;28;14250;-48
2020/12/21 15:48:02;;;;;;;;;;;;;;;;;;5048084;28;14800;-50
2020/12/21 15:50:28;;;;;;;;;;;;;;;;;;5051353;28;11008;-52
2020/12/21 15:52:54;;;;;;;;;;;;;;;;;;5044005;28;11314;-51
2020/12/21 15:55:19;;;;;;;;;;;;;;;;;;5049197;28;9015;-49
2020/12/21 15:57:45;;;;;;;;;;;;;;;;;;5046534;28;12997;-46
2020/12/21 16:00:10;;;;;;;;;;;;;;;;;;5038776;28;14304;-50
2020/12/21 16:02:36;;;;;;;;;;;;;;;;;;5043615;28;12707;-57
2020/12/21 16:05:01;;;;;;;;;;;;;;;;;;5051056;28;14416;-46
2020/12/21 16:07:26;;;;;;;;;;;;;;;;;;5043440;28;7578;-50
2020/12/21 16:09:52;;;;;;;;;;;;;;;;;;5038678;28;7787;-52
2020/12/21 16:12:17;;;;;;;;;;;;;;;;;;5037547;28;14355;-51
2020/12/21 16:14:43;;;;;;;;;;;;;;;;;;5042999;28;14182;-49
2020/12/21 16:17:11;;;;;;;;;;;;;;;;;;5045457;28;10775;-48
2020/12/21 16:19:36;;;;;;;;;;;;;;;;;;5044657;28;3939;-52
2020/12/21 16:22:02;;;;;;;;;;;;;;;;;;5043945;28;13408;-49
2020/12/21 16:24:27;;;;;;;;;;;;;;;;;;5040712;28;14623;-48
2020/12/21 16:26:53;;;;;;;;;;;;;;;;;;5054143;28;9639;-56
2020/12/21 16:29:18;;;;;;;;;;;;;;;;;;5039398;28;11527;-56
2020/12/21 16:31:49;;;;;;;;;;;;;;;;;;5046460;28;4196;-57
2020/12/21 16:34:15;;;;;;;;;;;;;;;;;;5048492;28;14720;-55
2020/12/21 16:36:42;;;;;;;;;;;;;;;;;;5035716;28;9446;-56
2020/12/21 16:39:08;;;;;;;;;;;;;;;;;;5038586;28;11476;-56